createdAt,value
2019-01-02T00:00:23.412Z,9.47
2019-01-02T00:02:51.992Z,15.33
2019-01-02T00:05:20.527Z,16.73
2019-01-02T00:07:48.972Z,9.87
2019-01-02T00:10:18.176Z,18.53
2019-01-02T00:12:46.683Z,14.97
2019-01-02T00:15:15.427Z,14.03
2019-01-02T00:17:43.958Z,16.83
2019-01-02T00:20:15.437Z,16.07
2019-01-02T00:22:45.609Z,15.50
2019-01-02T00:25:14.124Z,12.40
2019-01-02T00:27:42.741Z,14.67
2019-01-02T00:30:11.277Z,12.37
2019-01-02T00:32:40.156Z,13.63
2019-01-02T00:35:09.056Z,13.67
2019-01-02T00:37:37.887Z,12.87
2019-01-02T00:40:09.801Z,14.37
2019-01-02T00:42:38.600Z,13.30
2019-01-02T00:45:08.309Z,23.63
2019-01-02T00:47:37.231Z,17.17
2019-01-02T00:50:08.848Z,12.00
2019-01-02T00:52:37.837Z,15.13
2019-01-02T00:55:07.133Z,11.20
2019-01-02T00:57:35.955Z,16.20
2019-01-02T01:00:07.565Z,8.73
2019-01-02T01:02:36.488Z,17.70
2019-01-02T01:05:05.773Z,18.50
2019-01-02T01:07:34.592Z,12.40
2019-01-02T01:10:04.274Z,12.77
2019-01-02T01:12:33.385Z,12.63
2019-01-02T01:15:01.992Z,16.07
2019-01-02T01:17:30.779Z,13.27
2019-01-02T01:19:59.216Z,17.40
2019-01-02T01:22:28.052Z,16.10
2019-01-02T01:24:56.502Z,15.20
2019-01-02T01:27:25.024Z,16.17
2019-01-02T01:29:53.536Z,11.37
2019-01-02T01:32:22.180Z,12.43
2019-01-02T01:34:51.096Z,15.40
2019-01-02T01:37:19.892Z,16.87
2019-01-02T01:39:48.337Z,15.43
2019-01-02T01:42:17.258Z,12.63
2019-01-02T01:44:45.693Z,16.30
2019-01-02T01:47:14.476Z,21.87
2019-01-02T01:49:42.988Z,14.17
2019-01-02T01:52:11.443Z,16.53
2019-01-02T01:54:40.161Z,16.90
2019-01-02T01:57:08.619Z,13.63
2019-01-02T01:59:37.141Z,12.83
2019-01-02T02:02:05.642Z,18.07
2019-01-02T02:04:34.132Z,11.73
2019-01-02T02:07:03.044Z,22.90
2019-01-02T02:09:31.495Z,17.17
2019-01-02T02:11:59.927Z,16.60
2019-01-02T02:14:28.764Z,16.17
2019-01-02T02:16:57.204Z,12.97
2019-01-02T02:19:26.032Z,15.77
2019-01-02T02:21:54.472Z,9.77
2019-01-02T02:24:22.931Z,14.43
2019-01-02T02:26:51.869Z,15.17
2019-01-02T02:29:20.392Z,11.63
2019-01-02T02:31:49.209Z,20.17
2019-01-02T02:34:17.677Z,13.93
2019-01-02T02:36:46.583Z,12.80
2019-01-02T02:39:15.497Z,15.10
2019-01-02T02:41:44.321Z,23.03
2019-01-02T02:44:13.050Z,17.67
2019-01-02T02:46:41.970Z,16.40
2019-01-02T02:49:10.427Z,16.43
2019-01-02T02:51:39.244Z,14.50
2019-01-02T02:54:08.075Z,21.93
2019-01-02T02:56:37.095Z,17.03
2019-01-02T02:59:06.103Z,17.47
2019-01-02T03:01:34.924Z,16.40
2019-01-02T03:04:03.833Z,17.20
2019-01-02T03:06:32.553Z,14.90
2019-01-02T03:09:01.573Z,13.93
2019-01-02T03:11:30.011Z,21.10
2019-01-02T03:13:58.866Z,19.33
2019-01-02T03:16:27.789Z,22.70
2019-01-02T03:18:56.701Z,15.77
2019-01-02T03:21:25.617Z,12.90
2019-01-02T03:23:54.330Z,16.47
2019-01-02T03:26:22.965Z,18.63
2019-01-02T03:28:51.468Z,19.07
2019-01-02T03:31:20.405Z,9.73
2019-01-02T03:33:49.226Z,20.93
2019-01-02T03:36:17.997Z,9.30
2019-01-02T03:38:46.436Z,18.83
2019-01-02T03:41:15.037Z,15.50
2019-01-02T03:43:43.476Z,10.87
2019-01-02T03:46:11.959Z,14.73
2019-01-02T03:48:40.398Z,16.80
2019-01-02T03:51:09.101Z,19.07
2019-01-02T03:53:37.590Z,15.97
2019-01-02T03:56:06.056Z,12.73
2019-01-02T03:58:34.513Z,18.97
2019-01-02T04:01:02.960Z,14.90
2019-01-02T04:03:31.586Z,12.70
2019-01-02T04:06:00.113Z,14.80
2019-01-02T04:08:28.624Z,14.57
2019-01-02T04:10:57.092Z,10.53
2019-01-02T04:13:25.520Z,19.70
2019-01-02T04:15:53.979Z,11.30
2019-01-02T04:18:22.426Z,13.37
2019-01-02T04:20:51.249Z,14.77
2019-01-02T04:23:19.689Z,12.47
2019-01-02T04:25:48.214Z,17.03
2019-01-02T04:28:16.791Z,17.20
2019-01-02T04:30:45.251Z,11.90
2019-01-02T04:33:13.767Z,16.67
2019-01-02T04:35:42.284Z,16.80
2019-01-02T04:38:10.750Z,17.37
2019-01-02T04:40:39.328Z,18.60
2019-01-02T04:43:07.781Z,18.10
2019-01-02T04:45:36.222Z,14.20
2019-01-02T04:48:04.752Z,14.77
2019-01-02T04:50:33.204Z,20.23
2019-01-02T04:53:01.722Z,12.60
2019-01-02T04:55:30.159Z,14.90
2019-01-02T04:57:58.672Z,15.00
2019-01-02T05:00:27.104Z,11.50
2019-01-02T05:02:55.561Z,17.60
2019-01-02T05:05:24.005Z,14.07
2019-01-02T05:07:52.463Z,17.13
2019-01-02T05:10:20.948Z,11.87
2019-01-02T05:12:49.408Z,11.80
2019-01-02T05:15:17.848Z,11.47
2019-01-02T05:17:46.289Z,24.43
2019-01-02T05:20:15.111Z,15.43
2019-01-02T05:22:43.704Z,13.97
2019-01-02T05:25:12.168Z,14.07
2019-01-02T05:27:40.600Z,16.83
2019-01-02T05:30:11.921Z,13.37
2019-01-02T05:32:40.544Z,11.03
2019-01-02T05:35:09.950Z,14.23
2019-01-02T05:37:38.408Z,11.57
2019-01-02T05:40:15.201Z,18.13
2019-01-02T05:42:43.652Z,20.70
2019-01-02T05:45:12.125Z,15.90
2019-01-02T05:47:40.563Z,15.93
2019-01-02T05:50:09.531Z,15.47
2019-01-02T05:52:37.975Z,16.03
2019-01-02T05:55:07.376Z,13.43
2019-01-02T05:57:40.155Z,19.10
2019-01-02T06:00:11.901Z,16.37
2019-01-02T06:02:40.454Z,16.63
2019-01-02T06:05:09.249Z,14.67
2019-01-02T06:07:45.320Z,13.70
2019-01-02T06:10:13.852Z,13.47
2019-01-02T06:12:45.330Z,12.47
2019-01-02T06:15:14.233Z,11.43
2019-01-02T06:17:42.700Z,14.63
2019-01-02T06:20:13.682Z,18.47
2019-01-02T06:22:42.193Z,10.67
2019-01-02T06:25:10.743Z,16.77
2019-01-02T06:27:39.245Z,15.97
2019-01-02T06:30:11.260Z,13.87
2019-01-02T06:32:39.888Z,11.67
2019-01-02T06:35:09.176Z,14.07
2019-01-02T06:37:37.629Z,21.53
2019-01-02T06:40:08.828Z,17.60
2019-01-02T06:42:37.306Z,21.93
2019-01-02T06:45:08.782Z,15.37
2019-01-02T06:47:37.220Z,19.00
2019-01-02T06:50:10.401Z,16.67
2019-01-02T06:52:38.877Z,13.67
2019-01-02T06:55:10.561Z,19.43
2019-01-02T06:57:39.009Z,11.00
2019-01-02T07:00:19.321Z,18.30
2019-01-02T07:02:47.816Z,17.17
2019-01-02T07:05:17.844Z,15.87
2019-01-02T07:07:46.279Z,16.97
2019-01-02T07:10:19.845Z,18.17
2019-01-02T07:12:48.288Z,12.67
2019-01-02T07:15:20.362Z,14.67
2019-01-02T07:17:46.935Z,15.90
2019-01-02T07:20:15.393Z,18.43
2019-01-02T07:22:43.916Z,15.30
2019-01-02T07:25:12.446Z,16.03
2019-01-02T07:27:40.888Z,17.93
2019-01-02T07:30:12.788Z,21.17
2019-01-02T07:32:41.224Z,15.37
2019-01-02T07:35:31.853Z,17.50
2019-01-02T07:38:24.436Z,12.77
2019-01-02T07:41:26.483Z,12.47
2019-01-02T07:44:07.165Z,11.60
2019-01-02T07:47:04.665Z,12.40
2019-01-02T07:49:58.886Z,27.50
2019-01-02T07:52:48.285Z,12.77
2019-01-02T07:55:36.532Z,15.07
2019-01-02T07:58:16.893Z,14.27
2019-01-02T08:00:57.406Z,16.87
2019-01-02T08:03:31.441Z,14.97
2019-01-02T08:06:20.901Z,20.27
2019-01-02T08:08:58.265Z,12.37
2019-01-02T08:11:38.611Z,9.97
2019-01-02T08:14:21.920Z,16.53
2019-01-02T08:17:02.573Z,12.53
2019-01-02T08:19:58.379Z,13.07
2019-01-02T08:22:44.331Z,12.20
2019-01-02T08:25:21.825Z,15.77
2019-01-02T08:28:02.398Z,17.23
2019-01-02T08:30:42.677Z,12.37
2019-01-02T08:33:41.267Z,12.13
2019-01-02T08:36:15.089Z,14.73
2019-01-02T08:39:01.516Z,20.73
2019-01-02T08:41:35.897Z,9.17
2019-01-02T08:44:36.187Z,9.50
2019-01-02T08:47:27.111Z,9.03
2019-01-02T08:50:22.728Z,14.83
2019-01-02T08:52:57.191Z,19.70
2019-01-02T08:55:40.586Z,14.67
2019-01-02T08:58:21.125Z,17.43
2019-01-02T09:00:58.761Z,14.40
2019-01-02T09:03:46.805Z,14.00
2019-01-02T09:06:53.335Z,15.10
2019-01-02T09:09:29.839Z,11.80
2019-01-02T09:12:23.987Z,15.47
2019-01-02T09:15:04.498Z,9.50
2019-01-02T09:18:06.119Z,10.63
2019-01-02T09:20:49.422Z,15.43
2019-01-02T09:23:29.571Z,11.40
2019-01-02T09:26:20.532Z,14.47
2019-01-02T09:29:11.294Z,11.13
2019-01-02T09:31:42.860Z,14.73
2019-01-02T09:34:41.636Z,9.70
2019-01-02T09:37:15.821Z,11.90
2019-01-02T09:39:47.360Z,11.17
2019-01-02T09:42:33.721Z,9.57
2019-01-02T09:45:23.388Z,12.90
2019-01-02T09:48:12.464Z,10.37
2019-01-02T09:51:16.957Z,11.87
2019-01-02T09:54:03.775Z,9.90
2019-01-02T09:56:59.278Z,14.13
2019-01-02T09:59:50.361Z,8.60
2019-01-02T10:02:37.012Z,10.87
2019-01-02T10:05:38.240Z,10.53
2019-01-02T10:08:24.710Z,9.37
2019-01-02T10:11:12.876Z,9.20
2019-01-02T10:14:18.540Z,9.20
2019-01-02T10:17:23.256Z,9.77
2019-01-02T10:20:11.264Z,9.80
2019-01-02T10:23:00.852Z,13.90
2019-01-02T10:25:47.254Z,14.00
2019-01-02T10:28:34.029Z,12.07
2019-01-02T10:31:23.791Z,11.43
2019-01-02T10:34:19.337Z,10.73
2019-01-02T10:37:10.258Z,10.63
2019-01-02T10:39:53.212Z,13.40
2019-01-02T10:42:30.515Z,14.13
2019-01-02T10:45:22.149Z,14.73
2019-01-02T10:48:02.317Z,10.17
2019-01-02T10:50:55.263Z,11.43
2019-01-02T10:53:44.665Z,14.47
2019-01-02T10:56:31.082Z,10.50
2019-01-02T10:59:15.159Z,14.77
2019-01-02T11:02:01.581Z,11.80
2019-01-02T11:04:41.756Z,7.93
2019-01-02T11:07:21.819Z,12.03
2019-01-02T11:09:56.051Z,10.07
2019-01-02T11:12:42.360Z,14.77
2019-01-02T11:15:20.317Z,14.10
2019-01-02T11:18:10.181Z,12.90
2019-01-02T11:21:07.289Z,10.47
2019-01-02T11:23:53.885Z,11.87
2019-01-02T11:26:31.018Z,7.33
2019-01-02T11:29:14.766Z,10.00
2019-01-02T11:32:06.029Z,13.73
2019-01-02T11:34:50.149Z,11.33
2019-01-02T11:37:23.179Z,9.90
2019-01-02T11:40:01.414Z,14.23
2019-01-02T11:42:40.123Z,12.17
2019-01-02T11:45:09.669Z,12.67
2019-01-02T11:47:38.167Z,11.27
2019-01-02T11:50:09.525Z,10.37
2019-01-02T11:52:37.975Z,9.77
2019-01-02T11:55:08.148Z,8.90
2019-01-02T11:57:36.840Z,13.17
2019-01-02T12:00:08.979Z,16.90
2019-01-02T12:02:37.445Z,11.07
2019-01-02T12:05:06.721Z,9.47
2019-01-02T12:07:35.179Z,12.23
2019-01-02T12:10:06.409Z,16.27
2019-01-02T12:12:35.178Z,14.33
2019-01-02T12:15:05.363Z,14.23
2019-01-02T12:17:33.813Z,12.37
2019-01-02T12:20:02.275Z,15.40
2019-01-02T12:22:30.714Z,12.67
2019-01-02T12:24:59.156Z,12.27
2019-01-02T12:27:27.601Z,13.47
2019-01-02T12:29:56.058Z,14.67
2019-01-02T12:32:24.497Z,11.97
2019-01-02T12:34:52.953Z,12.67
2019-01-02T12:37:21.397Z,11.23
2019-01-02T12:39:49.916Z,11.83
2019-01-02T12:42:18.345Z,9.53
2019-01-02T12:44:46.803Z,10.53
2019-01-02T12:47:15.236Z,14.67
2019-01-02T12:49:43.677Z,12.23
2019-01-02T12:52:12.128Z,15.97
2019-01-02T12:54:40.886Z,11.87
2019-01-02T12:57:09.397Z,12.70
2019-01-02T12:59:37.891Z,8.83
2019-01-02T13:02:09.524Z,16.20
2019-01-02T13:04:41.062Z,15.53
2019-01-02T13:07:21.716Z,16.77
2019-01-02T13:09:57.012Z,10.10
2019-01-02T13:12:37.561Z,17.87
2019-01-02T13:15:35.913Z,10.53
2019-01-02T13:18:13.090Z,12.67
2019-01-02T13:20:53.778Z,19.60
2019-01-02T13:23:34.065Z,11.77
2019-01-02T13:26:20.707Z,13.43
2019-01-02T13:29:07.220Z,15.93
2019-01-02T13:31:55.482Z,15.03
2019-01-02T13:34:46.769Z,11.73
2019-01-02T13:37:36.521Z,14.33
2019-01-02T13:40:20.077Z,16.90
2019-01-02T13:43:09.863Z,18.13
2019-01-02T13:45:41.791Z,14.40
2019-01-02T13:48:40.534Z,31.23
2019-01-02T13:51:10.929Z,16.63
2019-01-02T13:53:39.445Z,13.57
2019-01-02T13:56:09.228Z,18.30
2019-01-02T13:58:37.692Z,14.13
2019-01-02T14:01:06.128Z,12.70
2019-01-02T14:03:35.643Z,11.17
2019-01-02T14:06:04.144Z,12.80
2019-01-02T14:08:32.603Z,13.10
2019-01-02T14:11:01.047Z,14.03
2019-01-02T14:13:29.501Z,15.63
2019-01-02T14:15:57.941Z,15.03
2019-01-02T14:18:26.399Z,16.50
2019-01-02T14:20:54.827Z,13.10
2019-01-02T14:23:23.316Z,17.10
2019-01-02T14:25:51.780Z,14.03
2019-01-02T14:28:20.216Z,14.73
2019-01-02T14:30:50.877Z,13.17
2019-01-02T14:33:19.516Z,13.60
2019-01-02T14:35:48.006Z,14.60
2019-01-02T14:38:16.486Z,18.27
2019-01-02T14:40:44.931Z,16.83
2019-01-02T14:43:13.379Z,18.07
2019-01-02T14:45:41.829Z,12.80
2019-01-02T14:48:13.279Z,16.90
2019-01-02T14:50:41.737Z,13.10
2019-01-02T14:53:10.180Z,13.20
2019-01-02T14:55:38.646Z,19.03
2019-01-02T14:58:07.089Z,14.23
2019-01-02T15:00:35.537Z,11.87
2019-01-02T15:03:04.974Z,15.40
2019-01-02T15:05:33.514Z,16.03
2019-01-02T15:08:01.948Z,9.83
2019-01-02T15:10:30.394Z,15.70
2019-01-02T15:12:58.847Z,15.03
2019-01-02T15:15:27.295Z,14.97
2019-01-02T15:17:55.761Z,15.83
2019-01-02T15:20:24.206Z,14.77
2019-01-02T15:22:52.791Z,12.97
2019-01-02T15:25:21.235Z,16.37
2019-01-02T15:27:49.700Z,16.17
2019-01-02T15:30:18.156Z,19.17
2019-01-02T15:32:46.612Z,18.67
2019-01-02T15:35:15.046Z,19.03
2019-01-02T15:37:43.508Z,20.03
2019-01-02T15:40:12.021Z,13.60
2019-01-02T15:42:40.480Z,17.17
2019-01-02T15:45:09.457Z,23.67
2019-01-02T15:47:38.704Z,15.23
2019-01-02T15:50:10.323Z,12.13
2019-01-02T15:52:38.796Z,16.63
2019-01-02T15:55:08.790Z,14.07
2019-01-02T15:57:37.316Z,17.07
2019-01-02T16:00:11.529Z,9.87
2019-01-02T16:02:40.159Z,16.73
2019-01-02T16:05:08.740Z,14.23
2019-01-02T16:07:37.209Z,18.07
2019-01-02T16:10:07.585Z,12.57
2019-01-02T16:12:36.119Z,17.73
2019-01-02T16:15:05.496Z,20.10
2019-01-02T16:17:33.941Z,15.67
2019-01-02T16:20:02.477Z,17.10
2019-01-02T16:22:31.060Z,21.70
2019-01-02T16:25:02.532Z,19.10
2019-01-02T16:27:30.974Z,19.80
2019-01-02T16:29:59.512Z,17.50
2019-01-02T16:32:27.952Z,21.23
2019-01-02T16:34:56.424Z,16.83
2019-01-02T16:37:24.868Z,16.90
2019-01-02T16:39:53.337Z,16.87
2019-01-02T16:42:21.789Z,19.43
2019-01-02T16:44:50.243Z,24.63
2019-01-02T16:47:18.755Z,12.63
2019-01-02T16:49:50.347Z,22.20
2019-01-02T16:52:18.856Z,16.53
2019-01-02T16:54:47.334Z,28.63
2019-01-02T16:57:15.777Z,16.20
2019-01-02T16:59:44.239Z,20.77
2019-01-02T17:02:12.677Z,16.37
2019-01-02T17:04:41.132Z,16.80
2019-01-02T17:07:09.582Z,19.63
2019-01-02T17:09:38.048Z,22.90
2019-01-02T17:12:06.492Z,14.03
2019-01-02T17:14:34.955Z,17.67
2019-01-02T17:17:03.394Z,16.10
2019-01-02T17:19:31.832Z,17.50
2019-01-02T17:22:00.304Z,12.33
2019-01-02T17:24:28.879Z,19.63
2019-01-02T17:26:58.584Z,17.80
2019-01-02T17:29:27.066Z,14.37
2019-01-02T17:31:55.594Z,17.80
2019-01-02T17:34:24.046Z,19.30
2019-01-02T17:36:52.564Z,14.23
2019-01-02T17:39:21.010Z,11.13
2019-01-02T17:41:49.817Z,17.60
2019-01-02T17:44:18.254Z,12.23
2019-01-02T17:46:46.713Z,22.33
2019-01-02T17:49:16.080Z,17.80
2019-01-02T17:51:44.540Z,20.50
2019-01-02T17:54:12.976Z,15.33
2019-01-02T17:56:41.433Z,16.53
2019-01-02T17:59:09.872Z,18.20
2019-01-02T18:01:38.344Z,27.07
2019-01-02T18:04:06.801Z,17.03
2019-01-02T18:06:35.316Z,19.43
2019-01-02T18:09:05.457Z,19.70
2019-01-02T18:11:33.943Z,15.40
2019-01-02T18:14:02.471Z,14.77
2019-01-02T18:16:30.931Z,24.83
2019-01-02T18:18:59.516Z,17.40
2019-01-02T18:21:27.955Z,12.57
2019-01-02T18:23:56.406Z,15.30
2019-01-02T18:26:24.918Z,17.57
2019-01-02T18:28:53.448Z,11.93
2019-01-02T18:31:21.888Z,14.43
2019-01-02T18:33:50.347Z,18.27
2019-01-02T18:36:18.792Z,24.80
2019-01-02T18:38:47.384Z,23.43
2019-01-02T18:41:15.828Z,27.70
2019-01-02T18:43:44.291Z,22.90
2019-01-02T18:46:13.028Z,17.20
2019-01-02T18:48:41.483Z,17.87
2019-01-02T18:51:09.934Z,19.60
2019-01-02T18:53:38.497Z,22.03
2019-01-02T18:56:06.936Z,23.10
2019-01-02T18:58:35.424Z,13.47
2019-01-02T19:01:03.856Z,23.27
2019-01-02T19:03:32.297Z,15.43
2019-01-02T19:06:00.757Z,20.77
2019-01-02T19:08:29.216Z,16.33
2019-01-02T19:10:57.674Z,18.00
2019-01-02T19:13:26.142Z,21.30
2019-01-02T19:15:54.660Z,18.57
2019-01-02T19:18:23.100Z,19.60
2019-01-02T19:20:51.564Z,17.80
2019-01-02T19:23:20.008Z,20.50
2019-01-02T19:25:48.560Z,16.10
2019-01-02T19:28:16.993Z,17.20
2019-01-02T19:30:45.459Z,20.43
2019-01-02T19:33:13.900Z,19.30
2019-01-02T19:35:42.355Z,19.40
2019-01-02T19:38:10.800Z,20.83
2019-01-02T19:40:39.266Z,16.60
2019-01-02T19:43:07.704Z,22.47
2019-01-02T19:45:36.168Z,26.17
2019-01-02T19:48:04.917Z,22.23
2019-01-02T19:50:33.428Z,21.03
2019-01-02T19:53:01.934Z,18.93
2019-01-02T19:55:30.409Z,24.97
2019-01-02T19:57:58.945Z,19.80
2019-01-02T20:00:27.399Z,24.67
2019-01-02T20:02:55.841Z,15.17
2019-01-02T20:05:24.316Z,21.20
2019-01-02T20:07:52.750Z,21.63
2019-01-02T20:10:21.256Z,23.27
2019-01-02T20:12:49.720Z,16.40
2019-01-02T20:15:18.184Z,19.07
2019-01-02T20:17:46.691Z,20.83
2019-01-02T20:20:15.155Z,21.40
2019-01-02T20:22:43.624Z,24.93
2019-01-02T20:25:12.198Z,21.33
2019-01-02T20:27:40.646Z,16.97
2019-01-02T20:30:10.339Z,16.80
2019-01-02T20:32:38.790Z,19.40
2019-01-02T20:35:07.504Z,17.80
2019-01-02T20:37:35.943Z,20.67
2019-01-02T20:40:05.967Z,25.87
2019-01-02T20:42:34.490Z,24.93
2019-01-02T20:45:03.244Z,15.57
2019-01-02T20:47:31.707Z,20.57
2019-01-02T20:50:00.400Z,22.27
2019-01-02T20:52:28.928Z,29.70
2019-01-02T20:54:57.416Z,19.03
2019-01-02T20:57:25.956Z,25.50
2019-01-02T20:59:54.410Z,20.43
2019-01-02T21:02:22.868Z,24.03
2019-01-02T21:04:52.279Z,18.00
2019-01-02T21:07:20.819Z,21.73
2019-01-02T21:09:49.266Z,29.10
2019-01-02T21:12:17.724Z,24.70
2019-01-02T21:14:46.176Z,29.87
2019-01-02T21:17:14.720Z,24.10
2019-01-02T21:19:43.151Z,20.27
2019-01-02T21:22:11.636Z,26.80
2019-01-02T21:24:40.135Z,17.53
2019-01-02T21:27:08.600Z,20.70
2019-01-02T21:29:37.035Z,25.55
2019-01-02T21:32:05.505Z,23.10
2019-01-02T21:34:33.949Z,23.17
2019-01-02T21:37:02.580Z,20.33
2019-01-02T21:39:31.049Z,24.30
2019-01-02T21:41:59.555Z,25.83
2019-01-02T21:44:28.351Z,21.93
2019-01-02T21:46:56.879Z,21.73
2019-01-02T21:49:25.331Z,25.67
2019-01-02T21:51:54.101Z,25.83
2019-01-02T21:54:22.537Z,19.93
2019-01-02T21:56:50.982Z,24.20
2019-01-02T21:59:19.588Z,23.67
2019-01-02T22:01:48.096Z,25.13
2019-01-02T22:04:16.644Z,25.93
2019-01-02T22:06:45.089Z,26.17
2019-01-02T22:09:14.130Z,28.90
2019-01-02T22:11:42.573Z,20.50
2019-01-02T22:14:11.058Z,24.00
2019-01-02T22:16:39.524Z,30.13
2019-01-02T22:19:07.982Z,26.73
2019-01-02T22:21:36.432Z,25.77
2019-01-02T22:24:04.897Z,27.90
2019-01-02T22:26:34.006Z,24.23
2019-01-02T22:29:02.492Z,24.47
2019-01-02T22:31:30.941Z,27.40
2019-01-02T22:33:59.404Z,26.37
2019-01-02T22:36:27.899Z,28.10
2019-01-02T22:38:56.377Z,20.77
2019-01-02T22:41:24.853Z,27.13
2019-01-02T22:43:53.328Z,23.40
2019-01-02T22:46:21.768Z,29.50
2019-01-02T22:48:50.232Z,27.87
2019-01-02T22:51:18.680Z,23.67
2019-01-02T22:53:47.135Z,28.20
2019-01-02T22:56:15.595Z,25.13
2019-01-02T22:58:44.071Z,32.07
2019-01-02T23:01:23.437Z,24.37
2019-01-02T23:04:02.804Z,25.33
2019-01-02T23:06:49.088Z,31.13
2019-01-02T23:09:35.750Z,34.63
2019-01-02T23:12:08.973Z,30.50
2019-01-02T23:14:42.048Z,36.43
2019-01-02T23:17:28.340Z,28.80
2019-01-02T23:20:04.240Z,24.03
2019-01-02T23:22:43.108Z,26.57
2019-01-02T23:25:13.216Z,22.47
2019-01-02T23:27:58.308Z,35.00
2019-01-02T23:30:28.412Z,27.07
2019-01-02T23:33:01.180Z,45.60
2019-01-02T23:35:31.289Z,30.70
2019-01-02T23:38:01.443Z,30.37
2019-01-02T23:40:31.746Z,39.70
2019-01-02T23:43:04.387Z,35.97
2019-01-02T23:45:50.903Z,33.10
2019-01-02T23:48:21.368Z,29.20
2019-01-02T23:50:57.711Z,26.90
2019-01-02T23:53:44.565Z,25.53
2019-01-02T23:56:20.117Z,31.50
2019-01-02T23:58:59.385Z,32.03
